createdAt,value
2018-12-18T00:03:29.885Z,10.57
2018-12-18T00:05:55.982Z,11.77
2018-12-18T00:08:22.027Z,10.87
2018-12-18T00:10:50.269Z,10.00
2018-12-18T00:13:16.325Z,12.17
2018-12-18T00:15:42.352Z,9.43
2018-12-18T00:18:08.575Z,8.47
2018-12-18T00:20:34.617Z,8.73
2018-12-18T00:23:00.682Z,10.03
2018-12-18T00:25:27.131Z,9.87
2018-12-18T00:27:53.170Z,11.90
2018-12-18T00:30:19.200Z,7.93
2018-12-18T00:32:45.428Z,9.57
2018-12-18T00:35:11.523Z,9.40
2018-12-18T00:37:37.589Z,9.97
2018-12-18T00:40:05.316Z,10.83
2018-12-18T00:42:31.674Z,10.37
2018-12-18T00:44:57.746Z,12.20
2018-12-18T00:47:23.882Z,13.23
2018-12-18T00:49:49.905Z,10.17
2018-12-18T00:52:15.952Z,12.93
2018-12-18T00:54:42.095Z,10.60
2018-12-18T00:57:08.137Z,12.30
2018-12-18T00:59:34.186Z,11.27
2018-12-18T01:02:00.343Z,12.63
2018-12-18T01:04:26.756Z,10.27
2018-12-18T01:06:52.847Z,12.23
2018-12-18T01:09:19.210Z,13.60
2018-12-18T01:11:45.354Z,11.50
2018-12-18T01:14:11.438Z,10.47
2018-12-18T01:16:37.680Z,12.13
2018-12-18T01:19:10.695Z,12.43
2018-12-18T01:21:36.750Z,11.30
2018-12-18T01:24:03.127Z,9.03
2018-12-18T01:26:29.177Z,12.70
2018-12-18T01:28:55.214Z,12.33
2018-12-18T01:31:21.539Z,10.83
2018-12-18T01:33:47.637Z,12.13
2018-12-18T01:36:13.741Z,13.77
2018-12-18T01:38:40.000Z,10.10
2018-12-18T01:41:06.090Z,11.77
2018-12-18T01:43:32.367Z,10.63
2018-12-18T01:45:58.737Z,11.80
2018-12-18T01:48:24.806Z,10.10
2018-12-18T01:50:50.922Z,11.80
2018-12-18T01:53:17.245Z,11.23
2018-12-18T01:55:43.351Z,12.13
2018-12-18T01:58:09.431Z,11.80
2018-12-18T02:00:35.572Z,13.83
2018-12-18T02:03:01.644Z,9.80
2018-12-18T02:05:27.674Z,11.30
2018-12-18T02:07:53.961Z,12.23
2018-12-18T02:10:19.993Z,10.97
2018-12-18T02:12:46.084Z,12.33
2018-12-18T02:15:12.554Z,11.73
2018-12-18T02:17:38.632Z,11.37
2018-12-18T02:20:05.726Z,11.77
2018-12-18T02:22:31.962Z,13.13
2018-12-18T02:24:58.071Z,10.27
2018-12-18T02:27:24.130Z,9.80
2018-12-18T02:29:50.422Z,8.90
2018-12-18T02:32:16.498Z,11.90
2018-12-18T02:34:42.557Z,10.97
2018-12-18T02:37:08.912Z,10.63
2018-12-18T02:39:34.911Z,10.60
2018-12-18T02:42:00.941Z,9.33
2018-12-18T02:44:27.382Z,11.20
2018-12-18T02:46:53.603Z,10.47
2018-12-18T02:49:19.722Z,12.00
2018-12-18T02:51:46.032Z,10.00
2018-12-18T02:54:12.222Z,11.73
2018-12-18T02:56:38.274Z,8.07
2018-12-18T02:59:04.587Z,8.57
2018-12-18T03:01:30.651Z,12.93
2018-12-18T03:03:56.718Z,9.13
2018-12-18T03:06:23.098Z,10.87
2018-12-18T03:08:49.158Z,10.37
2018-12-18T03:11:17.265Z,10.47
2018-12-18T03:13:43.479Z,9.07
2018-12-18T03:16:09.548Z,10.33
2018-12-18T03:18:35.628Z,8.87
2018-12-18T03:21:01.890Z,11.27
2018-12-18T03:23:27.951Z,8.07
2018-12-18T03:25:53.958Z,9.40
2018-12-18T03:28:20.226Z,7.40
2018-12-18T03:30:46.307Z,7.47
2018-12-18T03:33:12.336Z,12.53
2018-12-18T03:35:38.634Z,8.03
2018-12-18T03:38:04.671Z,12.07
2018-12-18T03:40:30.878Z,9.20
2018-12-18T03:42:57.205Z,8.63
2018-12-18T03:45:23.506Z,9.10
2018-12-18T03:47:49.566Z,7.67
2018-12-18T03:50:15.763Z,9.53
2018-12-18T03:52:41.812Z,10.20
2018-12-18T03:55:07.890Z,10.30
2018-12-18T03:57:34.217Z,9.90
2018-12-18T04:00:00.307Z,9.70
2018-12-18T04:02:26.596Z,9.73
2018-12-18T04:04:52.761Z,9.70
2018-12-18T04:07:18.825Z,9.10
2018-12-18T04:09:45.126Z,9.03
2018-12-18T04:12:13.379Z,8.57
2018-12-18T04:14:39.445Z,9.10
2018-12-18T04:17:05.503Z,9.60
2018-12-18T04:19:31.824Z,9.40
2018-12-18T04:21:57.862Z,11.70
2018-12-18T04:24:23.902Z,10.50
2018-12-18T04:26:50.184Z,8.37
2018-12-18T04:29:16.203Z,13.93
2018-12-18T04:31:42.326Z,10.43
2018-12-18T04:34:08.643Z,12.77
2018-12-18T04:36:34.853Z,10.20
2018-12-18T04:39:00.888Z,9.67
2018-12-18T04:41:28.034Z,9.30
2018-12-18T04:43:54.206Z,10.67
2018-12-18T04:46:20.526Z,8.90
2018-12-18T04:48:46.782Z,10.50
2018-12-18T04:51:12.815Z,9.40
2018-12-18T04:53:38.887Z,9.97
2018-12-18T04:56:05.204Z,8.63
2018-12-18T04:58:31.251Z,8.33
2018-12-18T05:00:57.325Z,11.33
2018-12-18T05:03:23.615Z,8.97
2018-12-18T05:05:49.698Z,8.53
2018-12-18T05:08:15.778Z,11.07
2018-12-18T05:10:42.054Z,9.60
2018-12-18T05:13:08.105Z,10.83
2018-12-18T05:15:34.184Z,9.50
2018-12-18T05:18:00.299Z,9.17
2018-12-18T05:20:26.395Z,9.53
2018-12-18T05:22:52.436Z,9.10
2018-12-18T05:25:18.849Z,7.60
2018-12-18T05:27:44.957Z,7.87
2018-12-18T05:30:11.056Z,10.33
2018-12-18T05:32:37.367Z,7.93
2018-12-18T05:35:03.658Z,9.50
2018-12-18T05:37:29.704Z,10.03
2018-12-18T05:39:55.904Z,7.87
2018-12-18T05:42:28.868Z,10.03
2018-12-18T05:44:54.897Z,9.63
2018-12-18T05:47:21.136Z,9.00
2018-12-18T05:49:47.158Z,8.93
2018-12-18T05:52:13.200Z,10.63
2018-12-18T05:54:39.566Z,8.37
2018-12-18T05:57:05.614Z,11.10
2018-12-18T05:59:31.692Z,9.63
2018-12-18T06:01:57.804Z,9.13
2018-12-18T06:04:23.826Z,10.93
2018-12-18T06:06:49.876Z,11.60
2018-12-18T06:09:16.152Z,12.37
2018-12-18T06:11:42.174Z,13.07
2018-12-18T06:14:08.217Z,11.63
2018-12-18T06:16:35.147Z,14.57
2018-12-18T06:19:01.209Z,11.47
2018-12-18T06:21:27.259Z,10.43
2018-12-18T06:23:53.440Z,10.47
2018-12-18T06:26:19.475Z,11.33
2018-12-18T06:28:45.516Z,13.17
2018-12-18T06:31:11.910Z,12.17
2018-12-18T06:33:37.936Z,9.47
2018-12-18T06:36:04.122Z,11.93
2018-12-18T06:38:30.341Z,13.60
2018-12-18T06:40:56.359Z,12.70
2018-12-18T06:43:22.406Z,11.47
2018-12-18T06:45:55.520Z,9.93
2018-12-18T06:48:21.706Z,9.43
2018-12-18T06:50:47.767Z,12.07
2018-12-18T06:53:14.005Z,11.10
2018-12-18T06:55:40.167Z,10.77
2018-12-18T06:58:06.243Z,14.27
2018-12-18T07:00:32.453Z,11.47
2018-12-18T07:02:58.505Z,12.30
2018-12-18T07:05:24.534Z,16.03
2018-12-18T07:07:57.205Z,13.03
2018-12-18T07:10:18.877Z,12.20
2018-12-18T07:12:44.928Z,12.30
2018-12-18T07:15:11.457Z,15.33
2018-12-18T07:17:37.539Z,12.17
2018-12-18T07:20:03.849Z,9.80
2018-12-18T07:22:30.038Z,15.30
2018-12-18T07:24:56.075Z,11.83
2018-12-18T07:27:22.151Z,15.33
2018-12-18T07:29:48.516Z,14.50
2018-12-18T07:32:14.596Z,13.10
2018-12-18T07:34:40.654Z,13.40
2018-12-18T07:37:06.886Z,13.23
2018-12-18T07:39:32.965Z,13.53
2018-12-18T07:41:59.013Z,11.67
2018-12-18T07:44:25.278Z,15.63
2018-12-18T07:46:51.304Z,12.43
2018-12-18T07:49:17.560Z,12.40
2018-12-18T07:51:43.867Z,11.80
2018-12-18T07:54:09.918Z,14.73
2018-12-18T07:56:35.975Z,12.00
2018-12-18T07:59:02.246Z,11.93
2018-12-18T08:01:28.333Z,12.57
2018-12-18T08:03:54.394Z,14.47
2018-12-18T08:06:20.595Z,11.40
2018-12-18T08:08:46.665Z,12.37
2018-12-18T08:11:12.762Z,11.97
2018-12-18T08:13:38.989Z,12.20
2018-12-18T08:16:05.047Z,9.80
2018-12-18T08:18:31.099Z,11.33
2018-12-18T08:20:57.229Z,13.47
2018-12-18T08:23:23.273Z,11.50
2018-12-18T08:25:49.460Z,13.57
2018-12-18T08:28:15.686Z,11.70
2018-12-18T08:30:41.776Z,11.60
2018-12-18T08:33:07.822Z,11.67
2018-12-18T08:35:36.659Z,13.03
2018-12-18T08:38:02.267Z,12.27
2018-12-18T08:40:28.320Z,15.23
2018-12-18T08:42:54.592Z,11.53
2018-12-18T08:45:20.632Z,13.63
2018-12-18T08:47:46.713Z,13.10
2018-12-18T08:50:14.083Z,12.27
2018-12-18T08:52:40.135Z,12.77
2018-12-18T08:55:06.308Z,12.53
2018-12-18T08:57:32.545Z,12.37
2018-12-18T08:59:58.636Z,16.43
2018-12-18T09:02:24.729Z,14.03
2018-12-18T09:04:51.102Z,12.23
2018-12-18T09:07:17.146Z,12.67
2018-12-18T09:09:43.195Z,14.47
2018-12-18T09:12:11.547Z,15.07
2018-12-18T09:14:39.669Z,12.03
2018-12-18T09:17:07.133Z,11.13
2018-12-18T09:19:33.409Z,11.40
2018-12-18T09:21:59.458Z,12.43
2018-12-18T09:24:25.529Z,12.93
2018-12-18T09:26:51.909Z,12.83
2018-12-18T09:29:18.000Z,11.60
2018-12-18T09:31:44.066Z,18.70
2018-12-18T09:34:10.307Z,13.30
2018-12-18T09:36:36.370Z,12.77
2018-12-18T09:39:25.223Z,11.57
2018-12-18T09:41:53.299Z,12.97
2018-12-18T09:44:19.352Z,10.70
2018-12-18T09:46:45.720Z,12.77
2018-12-18T09:49:11.786Z,12.43
2018-12-18T09:51:38.361Z,11.30
2018-12-18T09:57:00.348Z,12.37
2018-12-18T09:59:26.920Z,13.07
2018-12-18T10:01:52.988Z,11.77
2018-12-18T10:04:19.104Z,10.83
2018-12-18T10:06:45.307Z,12.33
2018-12-18T10:09:11.492Z,10.17
2018-12-18T10:11:37.576Z,13.00
2018-12-18T10:14:03.960Z,10.57
2018-12-18T10:16:30.064Z,9.30
2018-12-18T10:18:56.156Z,11.50
2018-12-18T10:21:22.319Z,11.00
2018-12-18T10:23:48.481Z,9.67
2018-12-18T10:26:14.543Z,10.57
2018-12-18T10:28:40.860Z,10.87
2018-12-18T10:31:06.921Z,9.77
2018-12-18T10:36:05.334Z,10.30
2018-12-18T10:38:31.462Z,9.43
2018-12-18T10:40:57.544Z,10.50
2018-12-18T10:43:23.816Z,8.80
2018-12-18T10:45:49.893Z,11.37
2018-12-18T10:48:16.045Z,9.27
2018-12-18T10:50:42.349Z,14.23
2018-12-18T10:53:08.741Z,11.43
2018-12-18T10:55:34.917Z,9.17
2018-12-18T10:58:01.200Z,10.27
2018-12-18T11:00:33.366Z,7.87
2018-12-18T11:02:59.519Z,9.67
2018-12-18T11:05:25.855Z,10.33
2018-12-18T11:07:51.937Z,8.87
2018-12-18T11:10:18.041Z,8.50
2018-12-18T11:12:46.455Z,8.27
2018-12-18T11:15:12.644Z,7.67
2018-12-18T11:17:38.751Z,11.07
2018-12-18T11:20:05.386Z,7.70
2018-12-18T11:22:31.417Z,9.17
2018-12-18T11:24:58.323Z,10.27
2018-12-18T11:27:24.620Z,10.67
2018-12-18T11:29:50.688Z,9.00
2018-12-18T11:32:16.778Z,9.63
2018-12-18T11:34:42.949Z,8.43
2018-12-18T11:37:09.045Z,10.40
2018-12-18T11:39:35.159Z,10.80
2018-12-18T11:42:01.549Z,11.87
2018-12-18T11:44:27.598Z,11.20
2018-12-18T11:46:53.706Z,11.23
2018-12-18T11:49:19.975Z,12.20
2018-12-18T11:51:46.059Z,11.63
2018-12-18T11:54:12.147Z,9.67
2018-12-18T11:56:38.570Z,11.83
2018-12-18T11:59:04.618Z,9.37
2018-12-18T12:01:30.677Z,10.17
2018-12-18T12:03:56.923Z,11.67
2018-12-18T12:06:23.292Z,10.13
2018-12-18T12:08:49.415Z,11.13
2018-12-18T12:11:15.738Z,11.00
2018-12-18T12:16:37.630Z,10.93
2018-12-18T12:19:03.871Z,10.37
2018-12-18T12:21:29.926Z,10.00
2018-12-18T12:23:56.451Z,11.70
2018-12-18T12:26:28.546Z,9.73
2018-12-18T12:28:54.617Z,9.73
2018-12-18T12:31:20.916Z,11.60
2018-12-18T12:33:47.006Z,8.20
2018-12-18T12:36:13.090Z,10.43
2018-12-18T12:38:39.317Z,10.53
2018-12-18T12:41:05.363Z,10.33
2018-12-18T12:43:31.475Z,10.07
2018-12-18T12:45:57.836Z,10.13
2018-12-18T12:48:25.909Z,7.60
2018-12-18T12:50:51.957Z,8.90
2018-12-18T12:53:18.468Z,9.27
2018-12-18T12:55:44.507Z,9.67
2018-12-18T12:58:10.584Z,10.93
2018-12-18T13:00:36.879Z,7.87
2018-12-18T13:03:03.003Z,10.07
2018-12-18T13:05:29.061Z,8.57
2018-12-18T13:07:56.233Z,7.97
2018-12-18T13:10:22.447Z,7.97
2018-12-18T13:12:48.470Z,7.17
2018-12-18T13:15:14.697Z,6.40
2018-12-18T13:17:40.768Z,6.67
2018-12-18T13:20:06.862Z,5.50
2018-12-18T13:22:33.188Z,7.47
2018-12-18T13:24:59.386Z,7.90
2018-12-18T13:27:25.410Z,6.80
2018-12-18T13:29:51.936Z,7.13
2018-12-18T13:32:18.026Z,6.10
2018-12-18T13:34:44.100Z,6.57
2018-12-18T13:37:10.427Z,4.53
2018-12-18T13:39:36.505Z,4.20
2018-12-18T13:42:02.664Z,4.90
2018-12-18T13:44:28.894Z,4.70
2018-12-18T13:46:54.949Z,5.33
2018-12-18T13:49:21.004Z,5.63
2018-12-18T13:51:47.093Z,4.87
2018-12-18T13:54:13.134Z,5.87
2018-12-18T13:56:39.220Z,5.63
2018-12-18T13:59:05.517Z,6.37
2018-12-18T14:01:31.583Z,7.50
2018-12-18T14:03:57.687Z,9.43
2018-12-18T14:06:23.990Z,6.40
2018-12-18T14:08:50.015Z,9.67
2018-12-18T14:11:16.090Z,8.00
2018-12-18T14:13:42.319Z,6.33
2018-12-18T14:16:08.377Z,7.87
2018-12-18T14:18:34.545Z,7.50
2018-12-18T14:21:00.828Z,8.93
2018-12-18T14:26:24.315Z,7.20
2018-12-18T14:28:50.602Z,7.20
2018-12-18T14:31:16.647Z,8.83
2018-12-18T14:33:42.801Z,7.57
2018-12-18T14:36:08.887Z,7.77
2018-12-18T14:38:37.968Z,8.40
2018-12-18T14:41:04.307Z,7.33
2018-12-18T14:43:30.334Z,7.50
2018-12-18T14:45:56.369Z,10.60
2018-12-18T14:48:22.694Z,7.23
2018-12-18T14:50:48.749Z,8.33
2018-12-18T14:53:14.820Z,7.50
2018-12-18T14:55:41.153Z,8.03
2018-12-18T14:58:07.224Z,10.77
2018-12-18T15:00:33.320Z,10.47
2018-12-18T15:02:59.665Z,7.53
2018-12-18T15:05:25.965Z,7.60
2018-12-18T15:10:47.900Z,6.73
2018-12-18T15:13:14.134Z,6.90
2018-12-18T15:15:40.200Z,8.83
2018-12-18T15:18:06.310Z,7.57
2018-12-18T15:20:32.565Z,9.47
2018-12-18T15:22:58.632Z,9.80
2018-12-18T15:25:24.693Z,12.13
2018-12-18T15:27:51.007Z,8.60
2018-12-18T15:30:17.258Z,9.50
2018-12-18T15:32:43.318Z,10.13
2018-12-18T15:35:09.590Z,7.10
2018-12-18T15:37:36.099Z,8.37
2018-12-18T15:40:02.922Z,10.10
2018-12-18T15:42:29.196Z,9.00
2018-12-18T15:44:55.270Z,9.37
2018-12-18T15:47:21.374Z,7.70
2018-12-18T15:49:47.547Z,10.50
2018-12-18T15:52:13.605Z,9.80
2018-12-18T15:54:39.651Z,9.47
2018-12-18T15:57:05.830Z,10.43
2018-12-18T15:59:31.915Z,8.73
2018-12-18T16:01:57.976Z,11.47
2018-12-18T16:04:24.292Z,9.47
2018-12-18T16:06:50.327Z,10.93
2018-12-18T16:09:16.413Z,8.80
2018-12-18T16:11:42.605Z,9.13
2018-12-18T16:14:08.649Z,8.97
2018-12-18T16:16:34.721Z,8.77
2018-12-18T16:19:01.083Z,10.77
2018-12-18T16:21:27.206Z,9.17
2018-12-18T16:23:53.387Z,7.30
2018-12-18T16:26:19.725Z,10.50
2018-12-18T16:28:45.772Z,10.37
2018-12-18T16:31:11.950Z,10.60
2018-12-18T16:33:38.166Z,10.27
2018-12-18T16:36:04.224Z,8.97
2018-12-18T16:38:30.276Z,9.70
2018-12-18T16:40:56.501Z,9.13
2018-12-18T16:43:22.589Z,9.20
2018-12-18T16:45:48.644Z,8.07
2018-12-18T16:48:14.868Z,9.37
2018-12-18T16:50:40.960Z,7.83
2018-12-18T16:53:07.009Z,6.87
2018-12-18T16:55:33.205Z,8.37
2018-12-18T16:57:59.276Z,7.60
2018-12-18T17:00:25.307Z,8.87
2018-12-18T17:02:51.526Z,8.60
2018-12-18T17:05:17.611Z,7.40
2018-12-18T17:07:43.651Z,8.20
2018-12-18T17:10:09.817Z,10.47
2018-12-18T17:12:35.823Z,8.53
2018-12-18T17:15:02.176Z,9.27
2018-12-18T17:17:28.500Z,8.40
2018-12-18T17:19:54.540Z,9.40
2018-12-18T17:22:20.676Z,8.53
2018-12-18T17:24:46.900Z,8.00
2018-12-18T17:27:12.955Z,8.00
2018-12-18T17:29:38.976Z,9.20
2018-12-18T17:32:05.341Z,8.60
2018-12-18T17:34:31.417Z,8.37
2018-12-18T17:36:57.490Z,9.87
2018-12-18T17:39:23.772Z,9.47
2018-12-18T17:41:49.832Z,9.80
2018-12-18T17:44:15.957Z,8.57
2018-12-18T17:46:42.280Z,8.17
2018-12-18T17:49:08.290Z,8.20
2018-12-18T17:51:34.347Z,7.83
2018-12-18T17:54:00.596Z,7.77
2018-12-18T17:56:26.644Z,9.70
2018-12-18T17:58:52.719Z,8.27
2018-12-18T18:01:19.021Z,7.63
2018-12-18T18:03:45.114Z,6.43
2018-12-18T18:06:11.165Z,8.60
2018-12-18T18:08:37.451Z,8.50
2018-12-18T18:11:03.561Z,8.33
2018-12-18T18:13:29.661Z,8.20
2018-12-18T18:15:55.983Z,10.77
2018-12-18T18:18:22.824Z,10.43
2018-12-18T18:20:48.874Z,10.50
2018-12-18T18:23:15.019Z,8.30
2018-12-18T18:25:41.265Z,8.47
2018-12-18T18:28:07.285Z,8.37
2018-12-18T18:30:33.538Z,10.53
2018-12-18T18:32:59.603Z,7.70
2018-12-18T18:35:25.667Z,9.43
2018-12-18T18:37:51.893Z,9.43
2018-12-18T18:40:17.936Z,10.20
2018-12-18T18:42:43.981Z,8.33
2018-12-18T18:45:10.218Z,7.50
2018-12-18T18:47:36.308Z,11.47
2018-12-18T18:50:03.714Z,11.10
2018-12-18T18:52:29.970Z,10.13
2018-12-18T18:54:56.016Z,9.23
2018-12-18T18:57:22.096Z,9.20
2018-12-18T18:59:48.434Z,9.87
2018-12-18T19:02:14.514Z,7.93
2018-12-18T19:04:40.548Z,11.17
2018-12-18T19:07:06.817Z,8.47
2018-12-18T19:09:32.899Z,9.43
2018-12-18T19:11:58.937Z,8.10
2018-12-18T19:14:25.190Z,10.10
2018-12-18T19:16:51.231Z,8.73
2018-12-18T19:19:17.310Z,11.93
2018-12-18T19:21:43.601Z,7.10
2018-12-18T19:24:09.625Z,9.43
2018-12-18T19:26:35.690Z,10.97
2018-12-18T19:29:01.924Z,9.63
2018-12-18T19:31:28.000Z,8.80
2018-12-18T19:33:54.034Z,10.47
2018-12-18T19:36:20.331Z,7.17
2018-12-18T19:38:46.394Z,9.43
2018-12-18T19:41:12.440Z,8.03
2018-12-18T19:43:38.691Z,8.27
2018-12-18T19:46:04.746Z,10.13
2018-12-18T19:48:31.166Z,10.20
2018-12-18T19:50:57.447Z,8.77
2018-12-18T19:53:23.511Z,10.03
2018-12-18T19:55:49.555Z,8.67
2018-12-18T19:58:15.916Z,7.93
2018-12-18T20:00:41.971Z,7.47
2018-12-18T20:03:08.156Z,8.30
2018-12-18T20:05:34.481Z,9.20
2018-12-18T20:08:00.564Z,7.40
2018-12-18T20:10:26.606Z,6.50
2018-12-18T20:12:52.829Z,8.70
2018-12-18T20:15:18.897Z,8.40
2018-12-18T20:17:45.008Z,6.73
2018-12-18T20:20:11.451Z,6.00
2018-12-18T20:22:37.530Z,6.10
2018-12-18T20:25:04.487Z,6.53
2018-12-18T20:27:30.743Z,7.23
2018-12-18T20:29:56.795Z,6.83
2018-12-18T20:32:22.856Z,6.30
2018-12-18T20:34:49.082Z,5.00
2018-12-18T20:37:18.237Z,7.27
2018-12-18T20:39:43.213Z,6.37
2018-12-18T20:42:09.451Z,5.77
2018-12-18T20:44:35.485Z,7.13
2018-12-18T20:47:01.623Z,4.20
2018-12-18T20:49:27.826Z,6.07
2018-12-18T20:51:53.871Z,7.07
2018-12-18T20:54:19.912Z,6.87
2018-12-18T20:56:46.315Z,7.20
2018-12-18T20:59:12.445Z,6.83
2018-12-18T21:01:38.480Z,6.20
2018-12-18T21:04:04.617Z,6.63
2018-12-18T21:06:30.715Z,5.07
2018-12-18T21:08:56.743Z,4.60
2018-12-18T21:11:22.992Z,6.40
2018-12-18T21:13:49.075Z,4.83
2018-12-18T21:16:15.155Z,5.30
2018-12-18T21:18:41.460Z,4.90
2018-12-18T21:21:07.539Z,5.30
2018-12-18T21:23:33.621Z,4.43
2018-12-18T21:25:59.785Z,5.03
2018-12-18T21:28:25.999Z,5.00
2018-12-18T21:30:52.058Z,6.43
2018-12-18T21:33:18.211Z,6.47
2018-12-18T21:35:44.295Z,5.63
2018-12-18T21:38:10.356Z,4.83
2018-12-18T21:40:36.590Z,5.67
2018-12-18T21:43:02.637Z,4.87
2018-12-18T21:45:28.735Z,4.13
2018-12-18T21:47:54.907Z,5.10
2018-12-18T21:50:20.975Z,5.60
2018-12-18T21:52:47.029Z,3.67
2018-12-18T21:55:13.257Z,4.87
2018-12-18T21:57:39.288Z,4.77
2018-12-18T22:00:07.606Z,4.37
2018-12-18T22:02:33.816Z,5.57
2018-12-18T22:04:59.913Z,5.10
2018-12-18T22:07:26.059Z,4.67
2018-12-18T22:09:52.181Z,4.80
2018-12-18T22:12:18.278Z,5.37
2018-12-18T22:14:44.316Z,3.93
2018-12-18T22:17:10.458Z,5.57
2018-12-18T22:19:36.537Z,4.33
2018-12-18T22:22:02.599Z,3.40
2018-12-18T22:24:28.839Z,4.03
2018-12-18T22:26:54.907Z,3.70
2018-12-18T22:29:20.949Z,3.37
2018-12-18T22:31:47.217Z,4.37
2018-12-18T22:34:13.242Z,5.17
2018-12-18T22:36:39.310Z,5.63
2018-12-18T22:39:06.377Z,3.70
2018-12-18T22:41:32.569Z,5.40
2018-12-18T22:43:58.642Z,6.43
2018-12-18T22:46:24.801Z,5.23
2018-12-18T22:48:50.835Z,3.87
2018-12-18T22:51:16.969Z,6.27
2018-12-18T22:53:43.117Z,5.20
2018-12-18T22:56:09.133Z,6.20
2018-12-18T22:58:35.230Z,4.93
2018-12-18T23:01:02.005Z,4.63
2018-12-18T23:03:28.213Z,6.67
2018-12-18T23:05:54.287Z,7.07
2018-12-18T23:08:20.632Z,6.43
2018-12-18T23:10:46.670Z,5.83
2018-12-18T23:13:14.767Z,6.47
2018-12-18T23:15:41.013Z,5.47
2018-12-18T23:18:07.084Z,5.27
2018-12-18T23:20:33.137Z,5.97
2018-12-18T23:22:59.329Z,6.97
2018-12-18T23:25:25.408Z,6.13
2018-12-18T23:27:51.409Z,6.43
2018-12-18T23:30:17.580Z,7.40
2018-12-18T23:32:43.631Z,6.60
2018-12-18T23:35:09.667Z,5.80
2018-12-18T23:37:36.101Z,6.27
2018-12-18T23:40:02.576Z,6.87
2018-12-18T23:42:28.648Z,6.33
2018-12-18T23:44:54.975Z,6.33
2018-12-18T23:47:21.012Z,8.17
2018-12-18T23:49:47.098Z,6.07
2018-12-18T23:52:13.801Z,8.20
2018-12-18T23:54:39.813Z,6.80
2018-12-18T23:57:05.845Z,6.73
2018-12-18T23:59:32.073Z,6.13
